KIAG/IAG METAR and TAF weather

Enter ICAO airport designator
Station Type Date Time Source
KIAG METAR 2022/01/18 06:53 UTC NOAA

KIAG 180653Z AUTO 28011KT 10SM BLSN BKN055 OVC080 M03/M07 A2970 RMK AO2 SLP074 T10281072 PNO $


Station Type Date Time Source
KIAG Decoded METAR 2022/01/18 06:53 UTC NOAA

NIAGARA FALLS INTERNATIONAL AIRPORT, NY, United States (KIAG) 43-07N 078-56W 182M
Jan 18, 2022 - 01:53 AM EST / 2022.01.18 0653 UTC
Wind: from the W (280 degrees) at 13 MPH (11 KT):0
Visibility: 10 mile(s):0
Sky conditions: overcast
Weather: blowing snow
Temperature: 27.0 F (-2.8 C)
Windchill: 15 F (-9 C):1
Dew Point: 19.0 F (-7.2 C)
Relative Humidity: 71%
Pressure (altimeter): 29.7 in. Hg (1005 hPa)
ob: KIAG 180653Z AUTO 28011KT 10SM BLSN BKN055 OVC080 M03/M07 A2970 RMK AO2 SLP074 T10281072 PNO
cycle: 7

Station Type Date Time Source
KIAG TAF 2022/01/18 06:22 UTC NOAA

TAF KIAG 180520Z 1806/1906 27012KT P6SM VCSH OVC035
FM181000 29012KT P6SM VCSH BKN035
FM181500 31009KT P6SM BKN025
FM182000 26006KT P6SM BKN150
FM190000 18005KT P6SM OVC100
FM190300 17012G18KT P6SM OVC060

Example: see airport list